Minsk, Belarus
Current Conditions -  °F | °C
As of 10:30 AM on Friday 24 Oct 2014 (Local Time) from UMMM Reporting Station
Clear Clear  
Wind Chill: 11°   Ceiling: Unl
Heat Index: 23°   Visibility: 6mi
Dew Point: 12°   Wind: 13mph
Humidity: 63%   Direction: 100°E
Pressure: 30.56"   Gusts: 20mph
Location:  53.91°N, 27.55°E
Report Text: UMMM 240830Z 10006G09MPS CAVOK M05/M11 Q1035 R12/CLRD60 NOSIGRMK QFE756
Loading
Personal Weather Stations






























Interactive Weather Map
Tropical Storm Tracking
New forecast layout! Learn more

10-Day Weather Forecast

Advertisements
Track Severe Weather on mobile